createdAt,value
2019-02-10T00:04:08.951Z,4.86
2019-02-10T00:10:34.730Z,4.86
2019-02-10T00:17:02.574Z,4.87
2019-02-10T00:23:39.502Z,4.85
2019-02-10T00:30:05.324Z,4.87
2019-02-10T00:36:33.657Z,4.77
2019-02-10T00:43:11.898Z,4.75
2019-02-10T00:53:01.733Z,4.77
2019-02-10T00:59:25.539Z,4.68
2019-02-10T01:05:54.253Z,4.66
2019-02-10T01:12:22.149Z,4.54
2019-02-10T01:19:33.724Z,4.54
2019-02-10T01:25:59.313Z,4.50
2019-02-10T01:35:43.324Z,4.36
2019-02-10T01:42:11.164Z,4.35
2019-02-10T01:48:50.112Z,4.26
2019-02-10T01:55:06.843Z,4.21
2019-02-10T02:01:33.368Z,4.23
2019-02-10T02:08:03.314Z,4.23
2019-02-10T02:14:40.462Z,4.27
2019-02-10T02:21:06.075Z,4.30
2019-02-10T02:27:33.562Z,4.36
2019-02-10T02:33:36.475Z,4.38
2019-02-10T02:40:02.330Z,4.42
2019-02-10T02:46:32.389Z,4.46
2019-02-10T02:56:46.271Z,4.50
2019-02-10T03:03:12.941Z,4.57
2019-02-10T03:09:53.947Z,4.61
2019-02-10T03:16:20.092Z,4.63
2019-02-10T03:22:47.697Z,4.65
2019-02-10T03:29:24.602Z,4.72
2019-02-10T03:35:18.360Z,4.76
2019-02-10T03:41:46.206Z,4.83
2019-02-10T03:48:13.034Z,4.83
2019-02-10T03:57:41.660Z,4.87
2019-02-10T04:04:26.297Z,4.92
2019-02-10T04:10:55.517Z,4.96
2019-02-10T04:17:24.961Z,4.97
2019-02-10T04:23:50.008Z,5.03
2019-02-10T04:30:29.768Z,5.05
2019-02-10T04:36:59.711Z,5.12
2019-02-10T04:43:25.826Z,5.19
2019-02-10T04:50:02.766Z,5.26
2019-02-10T05:00:03.715Z,5.63
2019-02-10T05:06:31.552Z,5.83
2019-02-10T05:12:57.116Z,5.96
2019-02-10T05:19:36.071Z,6.17
2019-02-10T05:26:04.166Z,6.37
2019-02-10T05:32:30.995Z,6.50
2019-02-10T05:39:00.853Z,6.57
2019-02-10T05:45:39.805Z,6.67
2019-02-10T05:52:05.393Z,6.72
2019-02-10T06:02:28.409Z,6.80
2019-02-10T06:08:54.258Z,6.85
2019-02-10T06:15:31.540Z,6.91
2019-02-10T06:22:02.426Z,6.97
2019-02-10T06:28:29.009Z,6.99
2019-02-10T06:34:42.947Z,7.02
2019-02-10T06:41:08.763Z,7.06
2019-02-10T06:47:37.615Z,7.11
2019-02-10T06:54:04.212Z,7.07
2019-02-10T07:03:56.093Z,7.14
2019-02-10T07:10:35.055Z,7.16
2019-02-10T07:17:51.286Z,7.16
2019-02-10T07:25:02.601Z,7.20
2019-02-10T07:31:43.610Z,7.23
2019-02-10T07:39:19.089Z,7.27
2019-02-10T07:46:28.575Z,7.33
2019-02-10T07:54:06.107Z,7.36
2019-02-10T08:05:03.614Z,7.51
2019-02-10T08:12:08.480Z,7.55
2019-02-10T08:19:52.162Z,7.63
2019-02-10T08:27:26.421Z,7.69
2019-02-10T08:34:17.995Z,7.72
2019-02-10T08:41:19.964Z,7.77
2019-02-10T08:48:39.512Z,7.83
2019-02-10T08:55:06.141Z,7.87
2019-02-10T09:05:22.194Z,7.96
2019-02-10T09:11:48.047Z,8.00
2019-02-10T09:17:50.540Z,8.04
2019-02-10T09:24:18.696Z,8.12
2019-02-10T09:30:50.025Z,8.14
2019-02-10T09:37:15.392Z,8.15
2019-02-10T09:43:53.430Z,8.20
2019-02-10T09:50:20.156Z,8.18
2019-02-10T09:56:45.977Z,8.24
2019-02-10T10:06:11.380Z,8.33
2019-02-10T10:12:39.287Z,8.37
2019-02-10T10:19:06.243Z,8.36
2019-02-10T10:25:49.491Z,8.38
2019-02-10T10:32:12.802Z,8.39
2019-02-10T10:42:24.756Z,8.42
2019-02-10T10:48:52.937Z,8.42
2019-02-10T10:55:18.514Z,8.44
2019-02-10T11:01:47.681Z,8.49
2019-02-10T11:07:37.844Z,8.50
2019-02-10T11:14:01.644Z,8.52
2019-02-10T11:20:27.504Z,8.56
2019-02-10T11:27:07.273Z,8.56
2019-02-10T11:33:33.475Z,8.57
2019-02-10T11:40:05.116Z,8.57
2019-02-10T11:46:43.355Z,8.62
2019-02-10T11:53:07.883Z,8.64
2019-02-10T11:59:38.976Z,8.66
2019-02-10T12:09:11.274Z,8.65
2019-02-10T12:15:37.134Z,8.69
2019-02-10T12:22:16.413Z,8.65
2019-02-10T12:28:42.232Z,8.64
2019-02-10T12:35:09.830Z,8.64
2019-02-10T12:41:48.789Z,8.67
2019-02-10T12:48:14.636Z,8.63
2019-02-10T12:54:44.582Z,8.65
2019-02-10T13:01:22.640Z,8.68
2019-02-10T13:11:01.386Z,8.63
2019-02-10T13:17:27.206Z,8.53
2019-02-10T13:23:54.840Z,8.47
2019-02-10T13:30:21.876Z,8.46
2019-02-10T13:37:01.835Z,8.35
2019-02-10T13:43:33.404Z,8.28
2019-02-10T13:49:54.487Z,8.14
2019-02-10T13:56:33.165Z,8.03
2019-02-10T14:02:59.034Z,8.12
2019-02-10T14:08:50.735Z,8.09
2019-02-10T14:15:18.356Z,8.00
2019-02-10T14:21:57.314Z,7.79
2019-02-10T14:28:23.992Z,7.61
2019-02-10T14:31:36.913Z,7.56
2019-02-10T14:38:05.108Z,7.55
2019-02-10T14:44:31.937Z,7.55
2019-02-10T14:50:56.747Z,7.45
2019-02-10T14:57:35.465Z,7.51
2019-02-10T15:04:01.314Z,7.42
2019-02-10T15:09:55.017Z,7.40
2019-02-10T15:16:08.711Z,7.42
2019-02-10T15:22:48.675Z,7.41
2019-02-10T15:29:17.271Z,7.34
2019-02-10T15:35:43.121Z,7.31
2019-02-10T15:42:21.266Z,7.27
2019-02-10T15:48:45.883Z,7.18
2019-02-10T15:55:14.605Z,7.02
2019-02-10T16:01:18.335Z,6.87
2019-02-10T16:07:57.288Z,6.74
2019-02-10T16:14:11.197Z,6.73
2019-02-10T16:20:37.927Z,6.63
2019-02-10T16:27:17.705Z,6.57
2019-02-10T16:33:45.603Z,6.54
2019-02-10T16:40:16.697Z,6.37
2019-02-10T16:46:44.533Z,6.28
2019-02-10T16:53:21.463Z,6.28
2019-02-10T16:59:47.026Z,6.33
2019-02-10T17:06:17.791Z,6.30
2019-02-10T17:15:49.606Z,6.34
2019-02-10T17:22:28.560Z,6.35
2019-02-10T17:28:59.644Z,6.36
2019-02-10T17:35:27.236Z,6.31
2019-02-10T17:41:53.076Z,6.30
2019-02-10T17:48:29.986Z,6.27
2019-02-10T17:54:55.834Z,6.26
2019-02-10T18:01:23.741Z,6.26
2019-02-10T18:08:01.826Z,6.21
2019-02-10T18:14:43.803Z,6.29
2019-02-10T18:21:36.590Z,6.25
2019-02-10T18:28:27.966Z,6.17
2019-02-10T18:35:35.874Z,6.13
2019-02-10T18:42:38.389Z,6.14
2019-02-10T18:49:17.335Z,6.07
2019-02-10T18:56:14.115Z,6.08
2019-02-10T19:03:03.516Z,6.01
2019-02-10T19:09:46.506Z,6.04
2019-02-10T19:19:56.268Z,5.95
2019-02-10T19:26:22.113Z,5.93
2019-02-10T19:32:59.030Z,5.83
2019-02-10T19:40:01.486Z,5.63
2019-02-10T19:46:52.168Z,5.60
2019-02-10T19:53:56.762Z,5.57
2019-02-10T20:00:50.632Z,5.60
2019-02-10T20:07:38.887Z,5.61
2019-02-10T20:14:26.566Z,5.62
2019-02-10T20:21:10.850Z,5.57
2019-02-10T20:28:03.004Z,5.62
2019-02-10T20:34:44.740Z,5.58
2019-02-10T20:41:17.871Z,5.58
2019-02-10T20:48:04.904Z,5.55
2019-02-10T20:54:52.675Z,5.49
2019-02-10T21:01:41.462Z,5.48
2019-02-10T21:08:21.955Z,5.52
2019-02-10T21:15:19.083Z,5.49
2019-02-10T21:21:55.944Z,5.47
2019-02-10T21:28:33.981Z,5.47
2019-02-10T21:35:12.902Z,5.50
2019-02-10T21:41:54.863Z,5.40
2019-02-10T21:48:33.419Z,5.32
2019-02-10T21:55:11.552Z,5.23
2019-02-10T22:01:38.604Z,5.08
2019-02-10T22:08:07.451Z,5.01
2019-02-10T22:14:34.282Z,4.97
2019-02-10T22:20:58.096Z,4.96
2019-02-10T22:27:25.713Z,4.94
2019-02-10T22:33:52.752Z,4.94
2019-02-10T22:40:18.572Z,4.91
2019-02-10T22:46:44.387Z,4.87
2019-02-10T22:53:10.212Z,4.86
2019-02-10T22:59:35.793Z,4.88
2019-02-10T23:06:16.794Z,4.89
2019-02-10T23:12:43.831Z,4.94
2019-02-10T23:22:20.187Z,4.94
2019-02-10T23:28:46.362Z,4.92
2019-02-10T23:35:14.203Z,4.90
2019-02-10T23:41:51.132Z,4.90
2019-02-10T23:48:18.746Z,4.85
2019-02-10T23:54:45.806Z,4.85
